Time;durP1;ratioP1;P1;durP2;ratioP2;P2;SDS_P1;SDS_P2;PMS_P1;PMS_P2;Temp;Humidity;BMP_temperature;BMP_pressure;BME280_temperature;BME280_humidity;BME280_pressure;Samples;Min_cycle;Max_cycle;Signal;HPM_P1;HPM_P2
2023/07/13 00:01:03;;;;;;;9.88;1.60;;;;;;;23.32;88.98;100320.56;5091245;28;20032;-69
2023/07/13 00:03:34;;;;;;;9.18;1.52;;;;;;;23.28;89.65;100295.47;5088298;28;20373;-68
2023/07/13 00:06:01;;;;;;;8.77;1.73;;;;;;;23.21;89.96;100282.31;5086261;28;20024;-69
2023/07/13 00:08:32;;;;;;;4.57;1.35;;;;;;;23.20;90.39;100286.00;5096024;28;20115;-69
2023/07/13 00:10:58;;;;;;;6.65;1.30;;;;;;;23.24;90.22;100299.63;5084624;28;20096;-69
2023/07/13 00:13:23;;;;;;;6.88;1.67;;;;;;;23.30;90.38;100330.59;5092743;28;20060;-69
2023/07/13 00:15:49;;;;;;;4.68;1.70;;;;;;;23.35;91.31;100352.81;5084942;28;20036;-69
2023/07/13 00:18:14;;;;;;;12.25;1.90;;;;;;;23.35;92.43;100373.25;5086774;28;20026;-69
2023/07/13 00:20:41;;;;;;;6.85;1.60;;;;;;;23.30;92.02;100397.88;5077822;28;20056;-69
2023/07/13 00:23:07;;;;;;;6.13;1.73;;;;;;;23.32;92.11;100464.09;5096525;28;20423;-69
2023/07/13 00:25:33;;;;;;;8.07;1.42;;;;;;;23.23;93.17;100511.44;5094106;28;20032;-69
2023/07/13 00:27:58;;;;;;;9.32;1.17;;;;;;;23.15;89.95;100517.94;5091596;28;20029;-70
2023/07/13 00:30:24;;;;;;;6.95;0.52;;;;;;;23.11;85.73;100478.75;5078270;28;20037;-69
2023/07/13 00:32:49;;;;;;;7.45;0.77;;;;;;;;;;5089095;28;20131;-69
2023/07/13 00:35:15;;;;;;;11.38;0.77;;;;;;;23.45;80.25;100443.44;5093618;28;20030;-69
2023/07/13 00:37:41;;;;;;;4.03;0.75;;;;;;;23.56;78.63;100414.47;5082956;28;20028;-69
2023/07/13 00:40:07;;;;;;;5.90;0.77;;;;;;;23.66;78.08;100396.06;5094081;28;20086;-69
2023/07/13 00:42:33;;;;;;;7.40;1.05;;;;;;;23.76;77.00;100377.66;5084669;28;20024;-69
2023/07/13 00:45:07;;;;;;;4.28;0.68;;;;;;;23.79;76.97;100379.88;5091119;28;20135;-69
2023/07/13 00:47:33;;;;;;;6.38;0.73;;;;;;;23.94;75.78;100337.63;5083895;28;20059;-68
2023/07/13 00:50:00;;;;;;;3.60;0.90;;;;;;;24.01;74.92;100340.16;5076813;28;20070;-70
2023/07/13 00:52:28;;;;;;;6.43;0.65;;;;;;;24.13;74.96;100498.75;5082462;28;20024;-70
2023/07/13 00:54:54;;;;;;;6.72;0.70;;;;;;;24.06;76.60;100732.28;5091168;28;20036;-70
2023/07/13 00:57:21;;;;;;;9.85;1.75;;;;;;;23.54;84.76;100881.91;5087346;28;20861;-69
2023/07/13 00:59:51;;;;;;;6.18;1.38;;;;;;;21.88;96.54;100765.34;5081735;28;20471;-67
2023/07/13 01:02:17;;;;;;;17.63;2.00;;;;;;;20.54;100.00;100622.03;5086201;28;20024;-68
2023/07/13 01:04:43;;;;;;;2.83;0.65;;;;;;;19.80;100.00;100529.69;5087117;28;20031;-70
2023/07/13 01:07:10;;;;;;;4.13;0.98;;;;;;;19.43;100.00;100517.81;5083224;28;20108;-67
2023/07/13 01:09:36;;;;;;;11.35;1.55;;;;;;;19.40;100.00;100521.66;5090416;28;20034;-67
2023/07/13 01:12:01;;;;;;;4.35;1.23;;;;;;;19.52;100.00;100513.97;5082197;28;20107;-67
2023/07/13 01:14:27;;;;;;;8.02;1.85;;;;;;;19.57;100.00;100498.34;5091546;28;20020;-68
2023/07/13 01:16:54;;;;;;;4.82;1.38;;;;;;;19.62;100.00;100519.69;5076961;28;20027;-67
2023/07/13 01:19:19;;;;;;;9.45;1.50;;;;;;;19.64;100.00;100544.09;5081692;28;20036;-67
2023/07/13 01:21:50;;;;;;;9.63;1.90;;;;;;;19.72;100.00;100556.31;5090834;28;20031;-68
2023/07/13 01:24:16;;;;;;;6.57;1.67;;;;;;;19.75;100.00;100534.75;5085201;28;20094;-68
2023/07/13 01:26:41;;;;;;;7.90;2.25;;;;;;;19.79;100.00;100534.16;5067406;28;20048;-68
2023/07/13 01:29:07;;;;;;;7.25;2.15;;;;;;;19.81;100.00;100523.38;5085850;28;20032;-67
2023/07/13 01:31:33;;;;;;;6.88;1.90;;;;;;;19.72;100.00;100532.50;5083075;28;20387;-67
2023/07/13 01:33:58;;;;;;;4.15;1.63;;;;;;;19.63;100.00;100523.97;5083583;28;20036;-68
2023/07/13 01:36:24;;;;;;;7.57;2.20;;;;;;;19.68;100.00;100523.34;5087158;28;20043;-67
2023/07/13 01:38:49;;;;;;;9.63;2.17;;;;;;;19.74;100.00;100522.56;5088172;28;20028;-67
2023/07/13 01:41:15;;;;;;;5.10;2.22;;;;;;;19.76;100.00;100523.16;5087428;28;20673;-67
2023/07/13 01:43:40;;;;;;;3.17;1.65;;;;;;;19.72;100.00;100545.72;5084792;28;20020;-67
2023/07/13 01:46:05;;;;;;;3.28;1.67;;;;;;;19.68;100.00;100570.94;5093576;28;20127;-67
2023/07/13 01:48:31;;;;;;;6.22;1.40;;;;;;;19.64;100.00;100610.16;5081515;28;20028;-67
2023/07/13 01:50:57;;;;;;;8.13;1.77;;;;;;;19.63;100.00;100681.72;5092581;28;20031;-67
2023/07/13 01:53:22;;;;;;;4.15;1.38;;;;;;;19.60;100.00;100708.56;5088480;28;20024;-68
2023/07/13 01:55:48;;;;;;;4.28;1.77;;;;;;;19.51;100.00;100666.44;5083054;28;20399;-68
2023/07/13 01:58:13;;;;;;;2.75;0.80;;;;;;;19.51;100.00;100640.00;5089946;28;20025;-67
2023/07/13 02:00:39;;;;;;;1.70;0.60;;;;;;;19.48;100.00;100603.38;5088823;28;20039;-68
2023/07/13 02:03:04;;;;;;;4.43;1.13;;;;;;;19.44;100.00;100530.81;5081670;28;20063;-67
2023/07/13 02:05:29;;;;;;;2.25;0.60;;;;;;;19.41;100.00;100486.28;5086563;28;20040;-68
2023/07/13 02:07:55;;;;;;;2.38;0.90;;;;;;;19.43;100.00;100457.84;5090186;28;20028;-67
2023/07/13 02:10:20;;;;;;;3.45;0.93;;;;;;;19.51;100.00;100447.09;5080389;28;20047;-67
2023/07/13 02:12:49;;;;;;;4.22;1.10;;;;;;;19.49;100.00;100483.47;5090115;28;20035;-66
2023/07/13 02:15:15;;;;;;;5.38;0.98;;;;;;;19.46;100.00;100452.16;5089553;28;20065;-67
2023/07/13 02:17:40;;;;;;;3.05;0.77;;;;;;;19.47;100.00;100460.91;5086899;28;20058;-66
2023/07/13 02:20:07;;;;;;;2.92;1.05;;;;;;;19.58;100.00;100475.38;5085423;28;20040;-66
2023/07/13 02:22:33;;;;;;;5.40;0.90;;;;;;;19.70;100.00;100466.63;5083298;28;20032;-67
2023/07/13 02:24:59;;;;;;;4.07;1.48;;;;;;;19.72;100.00;100461.97;5081227;28;20138;-66
2023/07/13 02:27:25;;;;;;;3.08;1.70;;;;;;;19.74;100.00;100473.16;5085388;28;20050;-67
2023/07/13 02:29:51;;;;;;;6.05;1.85;;;;;;;19.74;100.00;100440.59;5088914;28;20448;-68
2023/07/13 02:32:17;;;;;;;5.00;1.40;;;;;;;19.68;100.00;100407.06;5073126;28;20116;-67
2023/07/13 02:34:42;;;;;;;4.60;1.17;;;;;;;19.58;100.00;100390.81;5090324;28;20106;-67
2023/07/13 02:37:08;;;;;;;6.05;1.17;;;;;;;19.53;100.00;100410.72;5103167;28;20081;-66
2023/07/13 02:39:33;;;;;;;4.60;0.77;;;;;;;19.53;100.00;100394.06;5088499;28;20036;-67
2023/07/13 02:42:00;;;;;;;1.95;1.08;;;;;;;19.53;100.00;100379.03;5087605;28;20031;-67
2023/07/13 02:44:26;;;;;;;6.85;1.52;;;;;;;19.59;100.00;100380.03;5079333;28;20602;-67
2023/07/13 02:46:51;;;;;;;6.57;1.20;;;;;;;19.61;100.00;100380.63;5066189;28;20056;-67
2023/07/13 02:49:16;;;;;;;4.18;1.10;;;;;;;19.61;100.00;100395.69;5050129;28;20032;-67
2023/07/13 02:51:42;;;;;;;5.45;1.35;;;;;;;19.54;100.00;100391.22;5068146;28;20039;-67
2023/07/13 02:54:08;;;;;;;4.03;1.40;;;;;;;19.58;100.00;100385.53;5064750;28;20043;-67
2023/07/13 02:56:34;;;;;;;3.95;1.55;;;;;;;19.54;100.00;100385.94;5067932;28;20120;-67
2023/07/13 02:59:00;;;;;;;3.90;0.90;;;;;;;19.58;100.00;100380.25;5071374;28;20520;-67
2023/07/13 03:01:26;;;;;;;6.03;1.10;;;;;;;19.55;100.00;100390.19;5077345;28;20806;-67
2023/07/13 03:03:52;;;;;;;4.05;1.30;;;;;;;19.52;100.00;100395.06;5061473;28;20060;-67
2023/07/13 03:06:18;;;;;;;2.72;1.02;;;;;;;19.48;100.00;100401.75;5073316;28;20031;-68
2023/07/13 03:08:44;;;;;;;3.25;0.88;;;;;;;19.45;100.00;100397.69;5067714;28;20028;-68
2023/07/13 03:11:15;;;;;;;4.43;2.00;;;;;;;19.44;100.00;100403.19;5071194;28;20079;-68
2023/07/13 03:13:41;;;;;;;6.80;1.98;;;;;;;19.49;100.00;100400.75;5077816;28;20473;-68
2023/07/13 03:16:08;;;;;;;3.95;1.88;;;;;;;19.54;100.00;100417.63;5065615;28;20033;-68
2023/07/13 03:18:35;;;;;;;4.30;1.25;;;;;;;19.50;100.00;100412.94;5067940;28;20028;-68
2023/07/13 03:21:01;;;;;;;3.85;1.10;;;;;;;19.47;100.00;100410.69;5067186;28;20055;-68
2023/07/13 03:23:26;;;;;;;3.65;0.82;;;;;;;19.37;100.00;100400.56;5061841;28;20492;-68
2023/07/13 03:26:09;;;;;;;5.03;1.80;;;;;;;19.31;100.00;100392.63;5060547;28;21028;-67
2023/07/13 03:28:35;;;;;;;6.35;1.40;;;;;;;19.31;100.00;100401.38;5038113;28;20045;-67
2023/07/13 03:31:02;;;;;;;4.35;1.23;;;;;;;19.22;100.00;100399.94;5071602;28;20115;-68
2023/07/13 03:33:27;;;;;;;8.73;0.90;;;;;;;19.16;100.00;100403.38;5071482;28;20373;-68
2023/07/13 03:35:53;;;;;;;3.28;0.70;;;;;;;19.14;100.00;100411.50;5071589;28;20090;-68
2023/07/13 03:38:19;;;;;;;2.85;0.75;;;;;;;19.09;100.00;100405.19;5073131;28;20043;-68
2023/07/13 03:40:45;;;;;;;3.53;0.77;;;;;;;19.08;100.00;100391.19;5068959;28;20028;-68
2023/07/13 03:43:10;;;;;;;4.75;0.50;;;;;;;19.14;100.00;100392.22;5061890;28;20039;-68
2023/07/13 03:45:38;;;;;;;2.38;0.65;;;;;;;19.12;100.00;100397.69;5059504;28;20499;-67
2023/07/13 03:48:04;;;;;;;2.13;0.43;;;;;;;19.03;100.00;100404.19;5068677;28;20032;-67
2023/07/13 03:50:30;;;;;;;3.40;0.75;;;;;;;19.04;100.00;100411.09;5065692;28;20115;-68
2023/07/13 03:52:59;;;;;;;2.45;0.45;;;;;;;19.02;100.00;100413.09;5069705;28;20131;-68
2023/07/13 03:55:26;;;;;;;2.42;0.57;;;;;;;19.00;100.00;100416.97;5060071;28;20031;-68
2023/07/13 03:57:59;;;;;;;4.90;0.80;;;;;;;18.94;100.00;100410.66;5062196;28;20021;-68
2023/07/13 04:00:24;;;;;;;2.28;0.50;;;;;;;18.94;100.00;100409.84;5073969;28;20120;-68
2023/07/13 04:02:50;;;;;;;5.20;0.63;;;;;;;18.87;100.00;100392.19;5067259;28;20116;-68
2023/07/13 04:05:16;;;;;;;4.57;0.63;;;;;;;18.83;100.00;100384.88;5071862;28;20061;-68
2023/07/13 04:07:41;;;;;;;5.50;0.60;;;;;;;18.81;100.00;100389.53;5063424;28;20039;-69
2023/07/13 04:10:07;;;;;;;1.83;0.47;;;;;;;18.80;100.00;100401.91;5071821;28;20061;-68
2023/07/13 04:12:33;;;;;;;2.47;0.40;;;;;;;18.83;100.00;100406.78;5066330;28;21218;-68
2023/07/13 04:14:58;;;;;;;2.45;0.60;;;;;;;18.84;100.00;100403.13;5073337;28;20028;-70
2023/07/13 04:17:24;;;;;;;2.72;0.50;;;;;;;18.95;100.00;100406.19;5068076;28;20032;-69
2023/07/13 04:19:49;;;;;;;2.67;0.63;;;;;;;19.06;100.00;100405.59;5066459;28;20123;-69
2023/07/13 04:22:15;;;;;;;4.28;0.77;;;;;;;19.03;100.00;100409.44;5063779;28;20066;-68
2023/07/13 04:24:40;;;;;;;4.55;0.85;;;;;;;19.07;100.00;100415.16;5071968;28;20066;-69
2023/07/13 04:27:07;;;;;;;2.92;0.50;;;;;;;18.99;100.00;100412.69;5064690;28;20067;-69
2023/07/13 04:29:32;;;;;;;4.72;0.70;;;;;;;19.01;100.00;100415.94;5063138;28;20043;-69
2023/07/13 04:31:58;;;;;;;1.40;0.60;;;;;;;19.09;100.00;100427.13;5070838;28;20101;-69
2023/07/13 04:34:24;;;;;;;3.20;0.70;;;;;;;19.16;100.00;100435.88;5055681;28;20029;-69
2023/07/13 04:36:50;;;;;;;2.70;0.45;;;;;;;19.19;100.00;100438.13;5065423;28;20095;-69
2023/07/13 04:39:16;;;;;;;3.75;0.88;;;;;;;19.16;100.00;100445.63;5063840;28;20532;-68
2023/07/13 04:41:41;;;;;;;3.17;0.47;;;;;;;19.17;100.00;100442.78;5061902;28;20372;-68
2023/07/13 04:44:07;;;;;;;2.40;0.50;;;;;;;19.23;100.00;100438.53;5073838;28;20032;-69
2023/07/13 04:46:33;;;;;;;2.45;0.60;;;;;;;19.26;100.00;100438.13;5089491;28;20056;-69
2023/07/13 04:48:58;;;;;;;2.65;0.80;;;;;;;19.33;100.00;100446.88;5088002;28;20433;-70
2023/07/13 04:51:25;;;;;;;2.38;0.55;;;;;;;19.41;100.00;100437.94;5089279;28;20039;-69
2023/07/13 04:53:51;;;;;;;4.88;0.60;;;;;;;19.48;100.00;100442.19;5081769;28;20028;-69
2023/07/13 04:56:16;;;;;;;3.13;0.65;;;;;;;19.41;100.00;100432.63;5080595;28;20051;-69
2023/07/13 04:58:42;;;;;;;3.30;0.70;;;;;;;19.39;100.00;100435.47;5075696;28;20024;-69
2023/07/13 05:01:09;;;;;;;3.55;0.60;;;;;;;19.42;100.00;100436.91;5088699;28;20140;-69
2023/07/13 05:03:34;;;;;;;8.95;0.50;;;;;;;19.44;100.00;100438.34;5081183;28;20032;-69
2023/07/13 05:06:04;;;;;;;4.30;0.50;;;;;;;19.42;100.00;100429.78;5092514;28;20024;-69
2023/07/13 05:08:29;;;;;;;4.05;0.85;;;;;;;19.51;100.00;100436.53;5087727;28;20119;-68
2023/07/13 05:10:55;;;;;;;3.80;0.50;;;;;;;19.53;100.00;100442.44;5072156;28;20161;-69
2023/07/13 05:13:21;;;;;;;4.35;0.73;;;;;;;19.55;100.00;100440.41;5090147;28;20115;-69
2023/07/13 05:16:01;;;;;;;1.42;0.40;;;;;;;19.58;100.00;100428.63;5088681;28;20035;-69
2023/07/13 05:18:28;;;;;;;4.63;0.40;;;;;;;19.65;100.00;100437.34;5085401;28;20024;-69
2023/07/13 05:21:07;;;;;;;4.15;0.40;;;;;;;19.66;100.00;100438.16;5081386;28;20024;-69
2023/07/13 05:23:34;;;;;;;3.60;0.50;;;;;;;19.73;100.00;100437.16;5085775;28;20372;-69
2023/07/13 05:26:00;;;;;;;3.40;0.70;;;;;;;19.74;100.00;100446.72;5083349;28;20032;-68
2023/07/13 05:28:27;;;;;;;4.60;0.40;;;;;;;19.80;100.00;100447.72;5082361;28;20032;-69
2023/07/13 05:30:56;;;;;;;3.95;0.77;;;;;;;19.87;100.00;100449.31;5083732;28;20107;-69
2023/07/13 05:33:22;;;;;;;4.07;0.60;;;;;;;19.95;100.00;100445.66;5091335;28;20034;-68
2023/07/13 05:35:48;;;;;;;2.83;0.47;;;;;;;19.97;100.00;100453.38;5085755;28;21949;-68
2023/07/13 05:38:13;;;;;;;2.30;0.70;;;;;;;19.92;100.00;100446.06;5094596;28;20755;-68
2023/07/13 05:40:39;;;;;;;5.30;0.73;;;;;;;19.99;100.00;100452.16;5084728;28;20043;-68
2023/07/13 05:43:04;;;;;;;3.67;0.40;;;;;;;20.10;100.00;100450.72;5085265;28;20144;-68
2023/07/13 05:45:30;;;;;;;4.60;0.60;;;;;;;20.18;100.00;100446.03;5079919;28;20051;-67
2023/07/13 05:47:55;;;;;;;5.55;0.60;;;;;;;20.26;100.00;100452.91;5063876;28;20040;-67
2023/07/13 05:50:21;;;;;;;4.90;0.52;;;;;;;20.36;100.00;100444.53;5067148;28;20050;-65
2023/07/13 05:52:46;;;;;;;3.05;0.40;;;;;;;20.47;100.00;100451.84;5071565;28;20025;-65
2023/07/13 05:55:13;;;;;;;4.00;0.60;;;;;;;20.52;100.00;100449.38;5066524;28;20111;-66
2023/07/13 05:57:38;;;;;;;5.53;0.70;;;;;;;20.59;100.00;100450.19;5059544;28;20111;-67
2023/07/13 06:00:04;;;;;;;5.10;0.63;;;;;;;20.70;100.00;100438.94;5068612;28;20390;-68
2023/07/13 06:02:30;;;;;;;5.20;0.88;;;;;;;20.79;100.00;100453.56;5067810;28;20029;-68
2023/07/13 06:04:55;;;;;;;9.40;0.85;;;;;;;20.93;100.00;100448.16;5064681;28;20050;-68
2023/07/13 06:07:21;;;;;;;3.65;0.40;;;;;;;20.99;100.00;100436.72;5067135;28;20407;-68
2023/07/13 06:09:46;;;;;;;3.97;0.50;;;;;;;20.92;100.00;100446.53;5067624;28;20040;-68
2023/07/13 06:12:12;;;;;;;1.90;0.45;;;;;;;20.86;100.00;100456.94;5076116;28;20032;-68
2023/07/13 06:14:37;;;;;;;4.68;0.47;;;;;;;20.81;100.00;100461.25;5067921;28;20028;-70
2023/07/13 06:17:03;;;;;;;6.88;0.50;;;;;;;20.77;100.00;100455.59;5050823;28;20388;-69
2023/07/13 06:19:29;;;;;;;3.25;0.40;;;;;;;20.76;100.00;100456.63;5075609;28;20387;-69
2023/07/13 06:21:54;;;;;;;5.25;0.50;;;;;;;20.74;100.00;100453.38;5071963;28;20435;-70
2023/07/13 06:24:19;;;;;;;4.60;0.50;;;;;;;20.73;100.00;100453.59;5071790;28;20427;-69
2023/07/13 06:26:45;;;;;;;2.90;0.60;;;;;;;20.79;100.00;100448.25;5073677;28;20480;-69
2023/07/13 06:29:10;;;;;;;1.17;0.30;;;;;;;20.86;100.00;100454.31;5070489;28;20043;-68
2023/07/13 06:31:36;;;;;;;3.30;0.65;;;;;;;20.95;100.00;100451.41;5071624;28;20054;-68
2023/07/13 06:34:01;;;;;;;3.30;0.45;;;;;;;21.09;100.00;100445.84;5064026;28;20052;-68
2023/07/13 06:36:27;;;;;;;4.75;0.50;;;;;;;21.36;100.00;100453.63;5073423;28;20029;-68
2023/07/13 06:38:53;;;;;;;2.50;0.50;;;;;;;21.64;100.00;100451.38;5053291;28;20020;-70
2023/07/13 06:41:18;;;;;;;3.00;0.50;;;;;;;21.82;100.00;100442.63;5071334;28;20522;-69
2023/07/13 06:43:44;;;;;;;4.35;0.52;;;;;;;21.98;100.00;100441.25;5069444;28;20076;-69
2023/07/13 06:46:10;;;;;;;9.40;1.13;;;;;;;22.10;100.00;100443.00;5086093;28;20048;-69
2023/07/13 06:48:35;;;;;;;3.80;0.60;;;;;;;22.12;100.00;100443.59;5085134;28;20032;-69
2023/07/13 06:51:02;;;;;;;1.70;0.50;;;;;;;22.17;100.00;100449.03;5087635;28;20028;-69
2023/07/13 06:53:28;;;;;;;3.42;0.60;;;;;;;22.23;100.00;100457.94;5098412;28;20487;-69
2023/07/13 06:55:53;;;;;;;5.45;1.00;;;;;;;22.29;100.00;100461.56;5090258;28;20039;-69
2023/07/13 06:58:19;;;;;;;1.88;0.47;;;;;;;22.40;100.00;100463.47;5095254;28;20035;-69
2023/07/13 07:00:46;;;;;;;3.90;0.47;;;;;;;22.47;100.00;100461.56;5074132;28;20024;-69
2023/07/13 07:03:12;;;;;;;6.45;0.50;;;;;;;22.54;100.00;100454.31;5092440;28;20044;-69
2023/07/13 07:05:38;;;;;;;3.58;0.70;;;;;;;22.57;100.00;100451.22;5082842;28;20501;-69
2023/07/13 07:08:03;;;;;;;5.70;0.50;;;;;;;22.56;100.00;100454.91;5072598;28;20035;-69
2023/07/13 07:10:31;;;;;;;1.75;0.50;;;;;;;22.56;100.00;100454.91;5085965;28;20024;-68
2023/07/13 07:12:57;;;;;;;6.00;0.50;;;;;;;22.49;100.00;100454.19;5086232;28;20027;-69
2023/07/13 07:15:23;;;;;;;4.25;0.88;;;;;;;22.47;99.69;100458.91;5092319;28;20521;-69
2023/07/13 07:17:48;;;;;;;4.40;0.80;;;;;;;22.55;99.16;100453.28;5075216;28;20442;-68
2023/07/13 07:20:14;;;;;;;5.10;0.88;;;;;;;22.67;99.25;100451.50;5090416;28;20031;-68
2023/07/13 07:22:39;;;;;;;4.28;0.50;;;;;;;22.76;97.71;100447.50;5085464;28;20119;-68
2023/07/13 07:25:05;;;;;;;5.03;0.70;;;;;;;22.79;98.01;100447.06;5088767;28;20061;-68
2023/07/13 07:27:30;;;;;;;4.07;0.63;;;;;;;22.83;97.09;100440.28;5084805;28;20487;-68
2023/07/13 07:29:57;;;;;;;7.35;0.60;;;;;;;22.93;97.39;100431.78;5065113;28;20036;-68
2023/07/13 07:32:23;;;;;;;2.40;0.40;;;;;;;23.07;96.55;100427.88;5084765;28;20031;-68
2023/07/13 07:34:49;;;;;;;4.45;0.60;;;;;;;23.12;96.55;100430.69;5067895;28;20028;-68
2023/07/13 07:37:15;;;;;;;4.00;0.70;;;;;;;23.11;96.75;100436.22;5087185;28;20047;-68
2023/07/13 07:39:40;;;;;;;2.30;0.40;;;;;;;23.13;96.03;100436.81;5089732;28;20112;-68
2023/07/13 07:42:06;;;;;;;2.25;0.60;;;;;;;23.17;95.81;100437.94;5086497;28;20027;-69
2023/07/13 07:44:32;;;;;;;1.55;0.40;;;;;;;23.23;96.03;100434.38;5082016;28;20122;-68
2023/07/13 07:46:58;;;;;;;4.78;0.60;;;;;;;23.34;96.45;100436.25;5067110;28;20124;-68
2023/07/13 07:49:24;;;;;;;5.90;0.88;;;;;;;23.38;96.29;100433.94;5074638;28;20491;-68
2023/07/13 07:51:50;;;;;;;1.70;0.70;;;;;;;23.45;95.92;100437.31;5063691;28;20044;-68
2023/07/13 07:54:16;;;;;;;16.08;1.25;;;;;;;23.53;95.83;100433.50;5069116;28;20040;-68
2023/07/13 07:56:42;;;;;;;4.82;0.70;;;;;;;23.63;94.82;100425.81;5070955;28;20050;-68
2023/07/13 07:59:07;;;;;;;5.18;0.70;;;;;;;23.72;94.43;100425.19;5071669;28;20095;-68
2023/07/13 08:01:33;;;;;;;5.38;0.98;;;;;;;23.77;93.91;100435.97;5070880;28;20480;-68
2023/07/13 08:03:58;;;;;;;5.35;0.90;;;;;;;23.82;94.16;100428.09;5071541;28;20074;-68
2023/07/13 08:06:24;;;;;;;3.80;1.02;;;;;;;23.99;93.08;100428.22;5070679;28;20025;-69
2023/07/13 08:08:50;;;;;;;5.47;0.82;;;;;;;24.19;92.76;100424.34;5070014;28;20408;-68
2023/07/13 08:11:16;;;;;;;8.57;1.02;;;;;;;24.35;93.13;100432.44;5070608;28;20032;-69
2023/07/13 08:13:41;;;;;;;7.80;1.02;;;;;;;24.49;92.53;100425.00;5070814;28;20037;-68
2023/07/13 08:16:07;;;;;;;6.65;1.20;;;;;;;24.64;90.89;100425.25;5066209;28;20040;-70
2023/07/13 08:18:33;;;;;;;4.88;1.00;;;;;;;24.61;90.31;100423.06;5068056;28;20044;-69
2023/07/13 08:21:03;;;;;;;6.53;1.00;;;;;;;24.59;89.86;100419.03;5071141;28;20119;-69
2023/07/13 08:23:28;;;;;;;4.40;0.95;;;;;;;24.71;89.48;100415.28;5070825;28;20032;-68
2023/07/13 08:25:54;;;;;;;3.50;0.90;;;;;;;24.76;90.61;100415.38;5071191;28;20081;-69
2023/07/13 08:28:21;;;;;;;2.95;0.80;;;;;;;24.82;89.50;100400.28;5070920;28;20024;-69
2023/07/13 08:30:48;;;;;;;4.40;1.00;;;;;;;24.93;89.98;100401.28;5068822;28;20032;-69
2023/07/13 08:33:18;;;;;;;5.93;0.90;;;;;;;25.11;87.74;100414.41;5070898;28;20064;-69
2023/07/13 08:35:47;;;;;;;3.45;1.08;;;;;;;25.20;87.53;100423.63;5070598;28;20081;-68
2023/07/13 08:38:13;;;;;;;3.78;1.10;;;;;;;25.16;87.73;100425.16;5071118;28;20024;-68
2023/07/13 08:40:40;;;;;;;5.18;1.02;;;;;;;25.11;88.14;100430.41;5070224;28;20492;-69
2023/07/13 08:43:18;;;;;;;6.20;0.70;;;;;;;24.97;86.76;100439.75;5058560;28;20105;-69
2023/07/13 08:45:50;;;;;;;5.95;1.25;;;;;;;24.85;88.51;100436.31;5071095;28;20052;-68
2023/07/13 08:48:30;;;;;;;8.48;1.55;;;;;;;24.86;87.10;100441.41;5053018;28;20044;-68
2023/07/13 08:51:04;;;;;;;4.95;0.85;;;;;;;24.93;87.21;100438.59;5077905;28;20028;-68
2023/07/13 08:53:38;;;;;;;5.35;1.35;;;;;;;24.99;86.86;100438.47;5070570;28;20155;-68
2023/07/13 08:56:09;;;;;;;8.53;1.00;;;;;;;25.12;88.00;100445.34;5077714;28;20399;-69
2023/07/13 08:58:36;;;;;;;6.55;1.75;;;;;;;25.14;88.15;100454.72;5070252;28;20267;-69
2023/07/13 09:01:10;;;;;;;6.43;2.40;;;;;;;25.00;87.21;100450.75;5075744;28;20027;-69
2023/07/13 09:04:08;;;;;;;7.25;2.22;;;;;;;24.92;86.46;100447.63;5070944;28;20506;-69
2023/07/13 09:07:20;;;;;;;9.80;1.92;;;;;;;24.78;88.13;100449.78;5068951;28;20060;-70
2023/07/13 09:09:52;;;;;;;18.38;2.30;;;;;;;24.78;89.46;100461.25;5068075;28;20078;-69
2023/07/13 09:13:05;;;;;;;10.77;2.15;;;;;;;24.86;87.35;100459.25;5074076;28;20121;-68
2023/07/13 09:15:32;;;;;;;7.07;1.58;;;;;;;24.98;92.15;100460.84;5070229;28;20119;-68
2023/07/13 09:18:10;;;;;;;7.30;1.13;;;;;;;25.09;89.28;100464.47;5070623;28;20025;-69
2023/07/13 09:20:42;;;;;;;9.55;1.50;;;;;;;25.14;88.86;100469.91;5064519;28;20044;-68
2023/07/13 09:23:15;;;;;;;3.63;1.23;;;;;;;25.19;88.58;100462.00;5076821;28;20499;-68
2023/07/13 09:25:42;;;;;;;5.85;0.88;;;;;;;25.22;89.77;100452.72;5051711;28;20024;-68
2023/07/13 09:28:19;;;;;;;5.93;1.30;;;;;;;25.10;86.93;100453.56;5076807;28;20059;-68
2023/07/13 09:31:05;;;;;;;4.82;1.08;;;;;;;25.13;86.70;100454.97;5071962;28;20032;-69
2023/07/13 09:33:31;;;;;;;2.67;0.90;;;;;;;25.21;90.02;100446.56;5079402;28;20497;-68
2023/07/13 09:36:01;;;;;;;3.22;1.17;;;;;;;25.29;89.51;100445.38;5074672;28;20032;-68
2023/07/13 09:38:29;;;;;;;4.10;1.60;;;;;;;25.43;89.23;100455.47;5074430;28;20070;-68
2023/07/13 09:41:18;;;;;;;3.63;1.42;;;;;;;25.56;84.93;100461.50;5073202;28;20467;-68
2023/07/13 09:44:13;;;;;;;3.75;1.90;;;;;;;25.59;84.60;100469.84;5080308;28;20040;-68
2023/07/13 09:47:00;;;;;;;5.75;1.40;;;;;;;25.55;88.56;100466.03;5092891;28;20464;-68
2023/07/13 09:49:28;;;;;;;6.20;1.42;;;;;;;25.42;87.99;100472.53;5076024;28;20436;-68
2023/07/13 09:52:02;;;;;;;3.35;1.33;;;;;;;25.33;87.09;100491.84;5085521;28;20399;-68
2023/07/13 09:54:28;;;;;;;6.35;2.13;;;;;;;25.31;88.46;100500.06;5090261;28;20410;-68
2023/07/13 09:56:56;;;;;;;6.25;2.25;;;;;;;25.26;89.02;100480.50;5094472;28;20031;-68
2023/07/13 09:59:24;;;;;;;9.95;3.13;;;;;;;25.25;89.35;100470.88;5094371;28;20385;-68
2023/07/13 10:01:50;;;;;;;11.00;1.40;;;;;;;25.31;89.13;100446.75;5075628;28;20407;-68
2023/07/13 10:04:22;;;;;;;5.80;1.48;;;;;;;25.39;87.49;100448.19;5087268;28;20046;-70
2023/07/13 10:06:47;;;;;;;3.72;1.10;;;;;;;25.41;88.39;100467.44;5093060;28;20420;-68
2023/07/13 10:09:17;;;;;;;8.02;1.15;;;;;;;25.43;86.93;100468.81;5094295;28;20032;-69
2023/07/13 10:11:44;;;;;;;9.55;1.70;;;;;;;25.49;87.02;100447.56;5093672;28;20115;-69
2023/07/13 10:14:20;;;;;;;10.18;1.95;;;;;;;25.58;85.13;100456.75;5093548;28;20047;-69
2023/07/13 10:16:46;;;;;;;8.73;1.42;;;;;;;25.67;88.59;100460.66;5093707;28;20054;-69
2023/07/13 10:19:20;;;;;;;6.88;1.50;;;;;;;25.73;89.46;100454.34;5093884;28;20499;-69
2023/07/13 10:21:56;;;;;;;6.03;1.50;;;;;;;25.69;88.93;100450.56;5087213;28;20082;-69
2023/07/13 10:24:26;;;;;;;11.65;1.83;;;;;;;25.74;89.46;100434.63;5093887;28;20078;-68
2023/07/13 10:27:15;;;;;;;8.23;1.40;;;;;;;25.85;85.53;100431.03;5093187;28;20376;-68
2023/07/13 10:29:46;;;;;;;7.80;1.70;;;;;;;26.02;86.15;100429.13;5093400;28;20040;-68
2023/07/13 10:32:13;;;;;;;6.47;1.90;;;;;;;26.05;86.17;100420.63;5086741;28;20040;-68
2023/07/13 10:34:40;;;;;;;6.75;1.77;;;;;;;26.15;85.37;100413.81;5091352;28;20697;-68
2023/07/13 10:37:14;;;;;;;10.13;1.52;;;;;;;26.25;85.27;100409.41;5087493;28;20068;-68
2023/07/13 10:39:40;;;;;;;5.78;1.67;;;;;;;26.30;85.25;100406.00;5088271;28;20028;-68
2023/07/13 10:42:11;;;;;;;6.95;1.98;;;;;;;26.26;84.95;100407.53;5080824;28;20021;-68
2023/07/13 10:44:38;;;;;;;5.85;1.55;;;;;;;26.36;86.44;100416.50;5067527;28;20040;-68
2023/07/13 10:47:14;;;;;;;4.40;1.58;;;;;;;26.52;85.79;100420.16;5066962;28;20033;-68
2023/07/13 10:49:41;;;;;;;5.68;2.50;;;;;;;26.57;85.76;100427.41;5055636;28;20431;-68
2023/07/13 10:52:40;;;;;;;4.68;2.13;;;;;;;26.62;86.26;100412.25;5063058;28;20029;-68
2023/07/13 10:55:32;;;;;;;10.45;2.17;;;;;;;26.71;87.41;100424.09;5066380;28;20028;-68
2023/07/13 10:58:27;;;;;;;4.68;2.05;;;;;;;26.74;89.31;100431.63;5069804;28;20111;-68
2023/07/13 11:01:03;;;;;;;7.93;2.83;;;;;;;26.48;90.93;100444.94;5068106;28;20076;-68
2023/07/13 11:03:31;;;;;;;11.35;3.72;;;;;;;26.25;93.19;100437.97;5072154;28;20170;-68
2023/07/13 11:06:23;;;;;;;10.57;3.00;;;;;;;26.09;90.16;100416.41;5073255;28;20025;-68
2023/07/13 11:08:49;;;;;;;6.75;3.20;;;;;;;26.17;93.45;100425.03;5052883;28;20059;-69
2023/07/13 11:11:23;;;;;;;4.22;3.25;;;;;;;26.18;92.09;100429.34;5058727;28;20060;-68
2023/07/13 11:13:49;;;;;;;5.97;3.35;;;;;;;26.10;94.46;100423.38;5068290;28;20037;-68
2023/07/13 11:16:17;;;;;;;6.10;3.90;;;;;;;25.99;93.77;100410.16;5068907;28;20032;-68
2023/07/13 11:19:13;;;;;;;9.70;4.32;;;;;;;25.84;93.75;100392.06;5070517;28;20029;-69
2023/07/13 11:21:58;;;;;;;;;;;;;;;25.68;97.27;100390.25;5063058;28;20033;-68
2023/07/13 11:24:29;;;;;;;12.15;3.72;;;;;;;25.71;98.98;100376.41;5064565;28;19913;-69
2023/07/13 11:26:56;;;;;;;12.00;3.30;;;;;;;25.72;98.48;100370.03;5069840;28;20692;-70